sensor_id;sensor_type;location;lat;lon;timestamp;P1;durP1;ratioP1;P2;durP2;ratioP2
43998;SDS011;51319;52.162;5.302;2022-10-16T00:02:06;9.45;;;2.08;;
43998;SDS011;51319;52.162;5.302;2022-10-16T00:04:32;11.10;;;2.28;;
43998;SDS011;51319;52.162;5.302;2022-10-16T00:06:58;11.23;;;2.35;;
43998;SDS011;51319;52.162;5.302;2022-10-16T00:09:25;8.00;;;1.95;;
43998;SDS011;51319;52.162;5.302;2022-10-16T00:11:51;8.40;;;2.20;;
43998;SDS011;51319;52.162;5.302;2022-10-16T00:14:17;8.30;;;1.70;;
43998;SDS011;51319;52.162;5.302;2022-10-16T00:16:43;7.05;;;1.80;;
43998;SDS011;51319;52.162;5.302;2022-10-16T00:19:10;9.23;;;2.45;;
43998;SDS011;51319;52.162;5.302;2022-10-16T00:21:38;7.22;;;1.90;;
43998;SDS011;51319;52.162;5.302;2022-10-16T00:24:05;5.65;;;2.15;;
43998;SDS011;51319;52.162;5.302;2022-10-16T00:26:35;9.60;;;2.33;;
43998;SDS011;51319;52.162;5.302;2022-10-16T00:29:02;6.40;;;2.25;;
43998;SDS011;51319;52.162;5.302;2022-10-16T00:31:28;6.88;;;1.90;;
43998;SDS011;51319;52.162;5.302;2022-10-16T00:33:55;9.35;;;2.30;;
43998;SDS011;51319;52.162;5.302;2022-10-16T00:36:22;6.95;;;2.10;;
43998;SDS011;51319;52.162;5.302;2022-10-16T00:38:50;10.27;;;2.67;;
43998;SDS011;51319;52.162;5.302;2022-10-16T00:41:19;7.47;;;2.17;;
43998;SDS011;51319;52.162;5.302;2022-10-16T00:48:49;7.93;;;2.38;;
43998;SDS011;51319;52.162;5.302;2022-10-16T00:51:34;8.98;;;2.35;;
43998;SDS011;51319;52.162;5.302;2022-10-16T00:54:02;7.55;;;2.30;;
43998;SDS011;51319;52.162;5.302;2022-10-16T00:56:33;6.43;;;2.30;;
43998;SDS011;51319;52.162;5.302;2022-10-16T00:59:01;8.85;;;2.17;;
43998;SDS011;51319;52.162;5.302;2022-10-16T01:01:32;6.93;;;2.58;;
43998;SDS011;51319;52.162;5.302;2022-10-16T01:03:59;10.82;;;2.65;;
43998;SDS011;51319;52.162;5.302;2022-10-16T01:06:31;7.68;;;3.17;;
43998;SDS011;51319;52.162;5.302;2022-10-16T01:09:21;9.13;;;2.60;;
43998;SDS011;51319;52.162;5.302;2022-10-16T01:12:10;5.72;;;2.20;;
43998;SDS011;51319;52.162;5.302;2022-10-16T01:15:07;9.30;;;2.72;;
43998;SDS011;51319;52.162;5.302;2022-10-16T01:17:45;5.53;;;2.60;;
43998;SDS011;51319;52.162;5.302;2022-10-16T01:20:30;8.85;;;3.03;;
43998;SDS011;51319;52.162;5.302;2022-10-16T01:28:34;11.48;;;3.00;;
43998;SDS011;51319;52.162;5.302;2022-10-16T01:31:08;12.32;;;2.47;;
43998;SDS011;51319;52.162;5.302;2022-10-16T01:33:39;4.65;;;2.60;;
43998;SDS011;51319;52.162;5.302;2022-10-16T01:36:13;6.82;;;2.75;;
43998;SDS011;51319;52.162;5.302;2022-10-16T01:38:43;9.45;;;2.70;;
43998;SDS011;51319;52.162;5.302;2022-10-16T01:43:43;11.30;;;2.97;;
43998;SDS011;51319;52.162;5.302;2022-10-16T01:46:32;8.82;;;2.95;;
43998;SDS011;51319;52.162;5.302;2022-10-16T01:49:01;4.28;;;3.13;;
43998;SDS011;51319;52.162;5.302;2022-10-16T01:51:30;9.70;;;2.78;;
43998;SDS011;51319;52.162;5.302;2022-10-16T01:53:59;7.45;;;2.10;;
43998;SDS011;51319;52.162;5.302;2022-10-16T01:56:27;6.10;;;3.03;;
43998;SDS011;51319;52.162;5.302;2022-10-16T01:59:09;9.73;;;2.47;;
43998;SDS011;51319;52.162;5.302;2022-10-16T02:01:40;9.80;;;2.75;;
43998;SDS011;51319;52.162;5.302;2022-10-16T02:04:20;10.27;;;2.75;;
43998;SDS011;51319;52.162;5.302;2022-10-16T02:06:59;5.55;;;2.50;;
43998;SDS011;51319;52.162;5.302;2022-10-16T02:09:26;5.40;;;2.95;;
43998;SDS011;51319;52.162;5.302;2022-10-16T02:11:53;4.97;;;2.75;;
43998;SDS011;51319;52.162;5.302;2022-10-16T02:14:22;13.15;;;3.60;;
43998;SDS011;51319;52.162;5.302;2022-10-16T02:16:50;5.57;;;3.67;;
43998;SDS011;51319;52.162;5.302;2022-10-16T02:19:16;5.32;;;2.95;;
43998;SDS011;51319;52.162;5.302;2022-10-16T02:21:57;8.95;;;3.85;;
43998;SDS011;51319;52.162;5.302;2022-10-16T02:27:07;6.85;;;3.03;;
43998;SDS011;51319;52.162;5.302;2022-10-16T02:29:53;3.90;;;2.90;;
43998;SDS011;51319;52.162;5.302;2022-10-16T02:32:26;5.03;;;2.80;;
43998;SDS011;51319;52.162;5.302;2022-10-16T02:34:56;7.28;;;2.90;;
43998;SDS011;51319;52.162;5.302;2022-10-16T02:37:24;6.47;;;3.13;;
43998;SDS011;51319;52.162;5.302;2022-10-16T02:39:54;10.07;;;4.45;;
43998;SDS011;51319;52.162;5.302;2022-10-16T02:42:27;6.97;;;2.80;;
43998;SDS011;51319;52.162;5.302;2022-10-16T02:44:59;6.88;;;3.70;;
43998;SDS011;51319;52.162;5.302;2022-10-16T02:47:25;12.93;;;3.45;;
43998;SDS011;51319;52.162;5.302;2022-10-16T02:49:51;8.88;;;3.22;;
43998;SDS011;51319;52.162;5.302;2022-10-16T02:52:18;7.43;;;3.20;;
43998;SDS011;51319;52.162;5.302;2022-10-16T02:54:44;8.18;;;3.33;;
43998;SDS011;51319;52.162;5.302;2022-10-16T02:57:10;9.23;;;3.47;;
43998;SDS011;51319;52.162;5.302;2022-10-16T02:59:37;5.25;;;3.13;;
43998;SDS011;51319;52.162;5.302;2022-10-16T03:02:03;7.10;;;2.88;;
43998;SDS011;51319;52.162;5.302;2022-10-16T03:04:30;9.00;;;3.13;;
43998;SDS011;51319;52.162;5.302;2022-10-16T03:06:56;8.07;;;3.70;;
43998;SDS011;51319;52.162;5.302;2022-10-16T03:09:22;7.80;;;3.03;;
43998;SDS011;51319;52.162;5.302;2022-10-16T03:11:48;6.18;;;3.00;;
43998;SDS011;51319;52.162;5.302;2022-10-16T03:14:15;5.97;;;2.85;;
43998;SDS011;51319;52.162;5.302;2022-10-16T03:16:41;8.65;;;2.80;;
43998;SDS011;51319;52.162;5.302;2022-10-16T03:19:07;5.28;;;2.65;;
43998;SDS011;51319;52.162;5.302;2022-10-16T03:21:34;5.63;;;2.53;;
43998;SDS011;51319;52.162;5.302;2022-10-16T03:24:00;4.95;;;2.95;;
43998;SDS011;51319;52.162;5.302;2022-10-16T03:26:26;6.38;;;2.60;;
43998;SDS011;51319;52.162;5.302;2022-10-16T03:28:52;6.35;;;2.65;;
43998;SDS011;51319;52.162;5.302;2022-10-16T03:31:18;5.82;;;2.65;;
43998;SDS011;51319;52.162;5.302;2022-10-16T03:33:44;4.07;;;2.83;;
43998;SDS011;51319;52.162;5.302;2022-10-16T03:36:10;4.40;;;2.70;;
43998;SDS011;51319;52.162;5.302;2022-10-16T03:38:37;2.83;;;2.63;;
43998;SDS011;51319;52.162;5.302;2022-10-16T03:41:03;3.38;;;2.25;;
43998;SDS011;51319;52.162;5.302;2022-10-16T03:43:29;9.13;;;2.88;;
43998;SDS011;51319;52.162;5.302;2022-10-16T03:45:56;6.53;;;3.03;;
43998;SDS011;51319;52.162;5.302;2022-10-16T03:48:22;8.98;;;3.30;;
43998;SDS011;51319;52.162;5.302;2022-10-16T03:50:48;5.13;;;2.88;;
43998;SDS011;51319;52.162;5.302;2022-10-16T03:53:16;6.43;;;3.10;;
43998;SDS011;51319;52.162;5.302;2022-10-16T03:55:42;8.23;;;2.67;;
43998;SDS011;51319;52.162;5.302;2022-10-16T03:58:09;6.13;;;2.35;;
43998;SDS011;51319;52.162;5.302;2022-10-16T04:00:39;9.15;;;2.65;;
43998;SDS011;51319;52.162;5.302;2022-10-16T04:03:08;4.55;;;2.85;;
43998;SDS011;51319;52.162;5.302;2022-10-16T04:05:35;8.68;;;2.47;;
43998;SDS011;51319;52.162;5.302;2022-10-16T04:08:02;2.60;;;2.25;;
43998;SDS011;51319;52.162;5.302;2022-10-16T04:10:28;4.55;;;2.50;;
43998;SDS011;51319;52.162;5.302;2022-10-16T04:12:54;5.57;;;2.30;;
43998;SDS011;51319;52.162;5.302;2022-10-16T04:15:24;6.15;;;2.90;;
43998;SDS011;51319;52.162;5.302;2022-10-16T04:17:51;4.18;;;1.98;;
43998;SDS011;51319;52.162;5.302;2022-10-16T04:20:17;8.00;;;2.42;;
43998;SDS011;51319;52.162;5.302;2022-10-16T04:22:44;2.80;;;1.77;;
43998;SDS011;51319;52.162;5.302;2022-10-16T04:25:10;3.17;;;2.10;;
43998;SDS011;51319;52.162;5.302;2022-10-16T04:27:37;4.75;;;2.33;;
43998;SDS011;51319;52.162;5.302;2022-10-16T04:30:10;4.53;;;2.25;;
43998;SDS011;51319;52.162;5.302;2022-10-16T04:32:36;5.30;;;2.47;;
43998;SDS011;51319;52.162;5.302;2022-10-16T04:35:03;5.82;;;2.30;;
43998;SDS011;51319;52.162;5.302;2022-10-16T04:37:29;4.32;;;1.90;;
43998;SDS011;51319;52.162;5.302;2022-10-16T04:39:55;11.40;;;2.45;;
43998;SDS011;51319;52.162;5.302;2022-10-16T04:42:21;6.28;;;2.65;;
43998;SDS011;51319;52.162;5.302;2022-10-16T04:44:47;4.93;;;2.58;;
43998;SDS011;51319;52.162;5.302;2022-10-16T04:47:14;7.22;;;2.55;;
43998;SDS011;51319;52.162;5.302;2022-10-16T04:49:40;4.70;;;2.00;;
43998;SDS011;51319;52.162;5.302;2022-10-16T04:52:06;4.22;;;2.00;;
43998;SDS011;51319;52.162;5.302;2022-10-16T04:54:34;7.55;;;2.03;;
43998;SDS011;51319;52.162;5.302;2022-10-16T04:57:00;4.78;;;2.08;;
43998;SDS011;51319;52.162;5.302;2022-10-16T04:59:26;5.25;;;2.38;;
43998;SDS011;51319;52.162;5.302;2022-10-16T05:01:52;5.60;;;2.20;;
43998;SDS011;51319;52.162;5.302;2022-10-16T05:04:18;7.82;;;2.15;;
43998;SDS011;51319;52.162;5.302;2022-10-16T05:06:44;5.82;;;2.38;;
43998;SDS011;51319;52.162;5.302;2022-10-16T05:09:11;8.68;;;2.45;;
43998;SDS011;51319;52.162;5.302;2022-10-16T05:11:37;5.20;;;2.55;;
43998;SDS011;51319;52.162;5.302;2022-10-16T05:14:03;12.23;;;2.40;;
43998;SDS011;51319;52.162;5.302;2022-10-16T05:16:29;4.80;;;2.20;;
43998;SDS011;51319;52.162;5.302;2022-10-16T05:18:56;8.55;;;2.50;;
43998;SDS011;51319;52.162;5.302;2022-10-16T05:21:42;5.38;;;2.47;;
43998;SDS011;51319;52.162;5.302;2022-10-16T05:24:08;6.95;;;2.42;;
43998;SDS011;51319;52.162;5.302;2022-10-16T05:26:34;7.47;;;2.50;;
43998;SDS011;51319;52.162;5.302;2022-10-16T05:29:01;9.15;;;2.67;;
43998;SDS011;51319;52.162;5.302;2022-10-16T05:31:28;6.55;;;3.22;;
43998;SDS011;51319;52.162;5.302;2022-10-16T05:33:58;12.15;;;2.50;;
43998;SDS011;51319;52.162;5.302;2022-10-16T05:36:25;6.30;;;1.92;;
43998;SDS011;51319;52.162;5.302;2022-10-16T05:38:51;4.60;;;2.45;;
43998;SDS011;51319;52.162;5.302;2022-10-16T05:41:18;8.13;;;2.30;;
43998;SDS011;51319;52.162;5.302;2022-10-16T05:43:47;5.82;;;2.60;;
43998;SDS011;51319;52.162;5.302;2022-10-16T05:46:14;3.38;;;2.33;;
43998;SDS011;51319;52.162;5.302;2022-10-16T05:48:42;5.03;;;2.13;;
43998;SDS011;51319;52.162;5.302;2022-10-16T05:51:09;6.22;;;2.22;;
43998;SDS011;51319;52.162;5.302;2022-10-16T05:53:38;11.90;;;2.53;;
43998;SDS011;51319;52.162;5.302;2022-10-16T05:56:06;3.97;;;2.28;;
43998;SDS011;51319;52.162;5.302;2022-10-16T05:58:36;4.97;;;2.15;;
43998;SDS011;51319;52.162;5.302;2022-10-16T06:01:04;9.68;;;3.08;;
43998;SDS011;51319;52.162;5.302;2022-10-16T06:03:41;9.07;;;2.75;;
43998;SDS011;51319;52.162;5.302;2022-10-16T06:06:12;9.55;;;2.95;;
43998;SDS011;51319;52.162;5.302;2022-10-16T06:08:39;5.93;;;2.72;;
43998;SDS011;51319;52.162;5.302;2022-10-16T06:11:08;11.20;;;2.70;;
43998;SDS011;51319;52.162;5.302;2022-10-16T06:13:36;12.40;;;2.58;;
43998;SDS011;51319;52.162;5.302;2022-10-16T06:16:03;4.75;;;2.67;;
43998;SDS011;51319;52.162;5.302;2022-10-16T06:18:29;6.00;;;2.30;;
43998;SDS011;51319;52.162;5.302;2022-10-16T06:20:56;5.05;;;2.50;;
43998;SDS011;51319;52.162;5.302;2022-10-16T06:23:23;8.15;;;3.10;;
43998;SDS011;51319;52.162;5.302;2022-10-16T06:25:49;6.65;;;2.53;;
43998;SDS011;51319;52.162;5.302;2022-10-16T06:28:16;7.28;;;2.47;;
43998;SDS011;51319;52.162;5.302;2022-10-16T06:30:42;7.35;;;2.78;;
43998;SDS011;51319;52.162;5.302;2022-10-16T06:33:12;8.18;;;2.80;;
43998;SDS011;51319;52.162;5.302;2022-10-16T06:35:38;6.28;;;2.92;;
43998;SDS011;51319;52.162;5.302;2022-10-16T06:38:04;7.22;;;3.00;;
43998;SDS011;51319;52.162;5.302;2022-10-16T06:40:30;3.72;;;2.60;;
43998;SDS011;51319;52.162;5.302;2022-10-16T06:42:56;6.90;;;3.38;;
43998;SDS011;51319;52.162;5.302;2022-10-16T06:45:23;7.50;;;2.95;;
43998;SDS011;51319;52.162;5.302;2022-10-16T06:47:49;5.75;;;3.15;;
43998;SDS011;51319;52.162;5.302;2022-10-16T06:50:15;6.90;;;2.92;;
43998;SDS011;51319;52.162;5.302;2022-10-16T06:52:41;11.10;;;3.47;;
43998;SDS011;51319;52.162;5.302;2022-10-16T06:55:07;4.07;;;2.75;;
43998;SDS011;51319;52.162;5.302;2022-10-16T06:57:34;7.40;;;2.83;;
43998;SDS011;51319;52.162;5.302;2022-10-16T07:00:00;6.53;;;2.72;;
43998;SDS011;51319;52.162;5.302;2022-10-16T07:02:26;6.00;;;3.35;;
43998;SDS011;51319;52.162;5.302;2022-10-16T07:04:52;4.43;;;2.95;;
43998;SDS011;51319;52.162;5.302;2022-10-16T07:07:19;12.07;;;3.00;;
43998;SDS011;51319;52.162;5.302;2022-10-16T07:09:45;7.78;;;2.95;;
43998;SDS011;51319;52.162;5.302;2022-10-16T07:12:11;5.93;;;2.78;;
43998;SDS011;51319;52.162;5.302;2022-10-16T07:14:37;6.60;;;3.78;;
43998;SDS011;51319;52.162;5.302;2022-10-16T07:17:03;7.50;;;2.95;;
43998;SDS011;51319;52.162;5.302;2022-10-16T07:19:29;8.02;;;3.33;;
43998;SDS011;51319;52.162;5.302;2022-10-16T07:21:59;6.78;;;2.70;;
43998;SDS011;51319;52.162;5.302;2022-10-16T07:24:25;3.33;;;1.98;;
43998;SDS011;51319;52.162;5.302;2022-10-16T07:26:51;11.07;;;2.60;;
43998;SDS011;51319;52.162;5.302;2022-10-16T07:29:19;6.90;;;2.13;;
43998;SDS011;51319;52.162;5.302;2022-10-16T07:31:46;7.82;;;3.33;;
43998;SDS011;51319;52.162;5.302;2022-10-16T07:34:14;14.43;;;3.22;;
43998;SDS011;51319;52.162;5.302;2022-10-16T07:36:41;8.63;;;2.15;;
43998;SDS011;51319;52.162;5.302;2022-10-16T07:39:12;8.10;;;2.38;;
43998;SDS011;51319;52.162;5.302;2022-10-16T07:41:38;5.28;;;2.25;;
43998;SDS011;51319;52.162;5.302;2022-10-16T07:44:05;8.02;;;2.08;;
43998;SDS011;51319;52.162;5.302;2022-10-16T07:46:31;18.20;;;5.57;;
43998;SDS011;51319;52.162;5.302;2022-10-16T07:48:59;9.40;;;2.08;;
43998;SDS011;51319;52.162;5.302;2022-10-16T07:51:25;8.27;;;2.00;;
43998;SDS011;51319;52.162;5.302;2022-10-16T07:53:51;7.57;;;2.90;;
43998;SDS011;51319;52.162;5.302;2022-10-16T07:56:18;9.88;;;2.35;;
43998;SDS011;51319;52.162;5.302;2022-10-16T07:58:45;7.07;;;2.30;;
43998;SDS011;51319;52.162;5.302;2022-10-16T08:01:12;6.93;;;2.30;;
43998;SDS011;51319;52.162;5.302;2022-10-16T08:03:44;10.27;;;4.35;;
43998;SDS011;51319;52.162;5.302;2022-10-16T08:06:11;16.65;;;6.88;;
43998;SDS011;51319;52.162;5.302;2022-10-16T08:08:37;12.05;;;3.05;;
43998;SDS011;51319;52.162;5.302;2022-10-16T08:11:03;9.07;;;2.58;;
43998;SDS011;51319;52.162;5.302;2022-10-16T08:13:30;12.50;;;5.20;;
43998;SDS011;51319;52.162;5.302;2022-10-16T08:15:57;8.23;;;3.35;;
43998;SDS011;51319;52.162;5.302;2022-10-16T08:18:23;11.73;;;5.43;;
43998;SDS011;51319;52.162;5.302;2022-10-16T08:20:56;26.27;;;14.18;;
43998;SDS011;51319;52.162;5.302;2022-10-16T08:23:24;9.52;;;5.07;;
43998;SDS011;51319;52.162;5.302;2022-10-16T08:25:56;5.57;;;1.90;;
43998;SDS011;51319;52.162;5.302;2022-10-16T08:28:27;4.63;;;1.77;;
43998;SDS011;51319;52.162;5.302;2022-10-16T08:30:54;5.25;;;1.77;;
43998;SDS011;51319;52.162;5.302;2022-10-16T08:33:22;10.27;;;2.53;;
43998;SDS011;51319;52.162;5.302;2022-10-16T08:35:52;5.40;;;1.75;;
43998;SDS011;51319;52.162;5.302;2022-10-16T08:38:19;4.82;;;2.17;;
43998;SDS011;51319;52.162;5.302;2022-10-16T08:40:46;5.35;;;1.50;;
43998;SDS011;51319;52.162;5.302;2022-10-16T08:43:21;4.93;;;1.58;;
43998;SDS011;51319;52.162;5.302;2022-10-16T08:51:09;5.13;;;1.50;;
43998;SDS011;51319;52.162;5.302;2022-10-16T08:53:44;5.88;;;1.55;;
43998;SDS011;51319;52.162;5.302;2022-10-16T08:56:23;5.20;;;1.63;;
43998;SDS011;51319;52.162;5.302;2022-10-16T08:58:51;12.57;;;1.73;;
43998;SDS011;51319;52.162;5.302;2022-10-16T09:01:45;8.93;;;1.60;;
43998;SDS011;51319;52.162;5.302;2022-10-16T09:04:30;9.00;;;2.00;;
43998;SDS011;51319;52.162;5.302;2022-10-16T09:07:49;7.43;;;1.77;;
43998;SDS011;51319;52.162;5.302;2022-10-16T09:18:13;9.25;;;2.08;;
43998;SDS011;51319;52.162;5.302;2022-10-16T09:20:49;8.27;;;2.08;;
43998;SDS011;51319;52.162;5.302;2022-10-16T09:26:03;8.93;;;2.03;;
43998;SDS011;51319;52.162;5.302;2022-10-16T09:28:31;10.07;;;2.17;;
43998;SDS011;51319;52.162;5.302;2022-10-16T09:30:58;9.43;;;2.10;;
43998;SDS011;51319;52.162;5.302;2022-10-16T09:33:25;14.27;;;2.10;;
43998;SDS011;51319;52.162;5.302;2022-10-16T09:35:56;8.85;;;2.53;;
43998;SDS011;51319;52.162;5.302;2022-10-16T09:38:31;10.88;;;2.30;;
43998;SDS011;51319;52.162;5.302;2022-10-16T09:41:00;11.85;;;1.90;;
43998;SDS011;51319;52.162;5.302;2022-10-16T09:46:22;7.72;;;1.80;;
43998;SDS011;51319;52.162;5.302;2022-10-16T09:49:01;10.98;;;1.95;;
43998;SDS011;51319;52.162;5.302;2022-10-16T09:51:31;9.07;;;2.10;;
43998;SDS011;51319;52.162;5.302;2022-10-16T09:56:43;12.85;;;2.38;;
43998;SDS011;51319;52.162;5.302;2022-10-16T09:59:17;10.48;;;2.33;;
43998;SDS011;51319;52.162;5.302;2022-10-16T10:01:50;13.07;;;1.85;;
43998;SDS011;51319;52.162;5.302;2022-10-16T10:04:22;17.45;;;2.40;;
43998;SDS011;51319;52.162;5.302;2022-10-16T10:06:54;8.93;;;2.28;;
43998;SDS011;51319;52.162;5.302;2022-10-16T10:09:28;11.60;;;2.15;;
43998;SDS011;51319;52.162;5.302;2022-10-16T10:12:03;9.10;;;1.98;;
43998;SDS011;51319;52.162;5.302;2022-10-16T10:14:41;7.57;;;2.13;;
43998;SDS011;51319;52.162;5.302;2022-10-16T10:17:16;15.48;;;2.53;;
43998;SDS011;51319;52.162;5.302;2022-10-16T10:22:17;7.88;;;2.15;;
43998;SDS011;51319;52.162;5.302;2022-10-16T10:38:18;7.57;;;2.10;;
43998;SDS011;51319;52.162;5.302;2022-10-16T10:40:59;9.57;;;2.58;;
43998;SDS011;51319;52.162;5.302;2022-10-16T10:43:45;7.85;;;2.10;;
43998;SDS011;51319;52.162;5.302;2022-10-16T10:46:20;12.93;;;2.53;;
43998;SDS011;51319;52.162;5.302;2022-10-16T10:54:46;13.50;;;2.90;;
43998;SDS011;51319;52.162;5.302;2022-10-16T11:06:33;8.80;;;2.33;;
43998;SDS011;51319;52.162;5.302;2022-10-16T11:14:43;13.55;;;2.90;;
43998;SDS011;51319;52.162;5.302;2022-10-16T11:17:17;14.15;;;2.40;;
43998;SDS011;51319;52.162;5.302;2022-10-16T11:20:03;7.30;;;2.03;;
43998;SDS011;51319;52.162;5.302;2022-10-16T11:22:40;9.57;;;2.17;;
43998;SDS011;51319;52.162;5.302;2022-10-16T11:30:30;10.00;;;2.40;;
43998;SDS011;51319;52.162;5.302;2022-10-16T11:35:37;8.82;;;2.03;;
43998;SDS011;51319;52.162;5.302;2022-10-16T11:38:41;6.10;;;1.90;;
43998;SDS011;51319;52.162;5.302;2022-10-16T11:41:32;8.95;;;1.90;;
43998;SDS011;51319;52.162;5.302;2022-10-16T11:44:18;7.32;;;1.65;;
43998;SDS011;51319;52.162;5.302;2022-10-16T11:47:08;9.93;;;2.20;;
43998;SDS011;51319;52.162;5.302;2022-10-16T11:52:48;8.48;;;2.10;;
43998;SDS011;51319;52.162;5.302;2022-10-16T11:55:27;8.15;;;2.20;;
43998;SDS011;51319;52.162;5.302;2022-10-16T11:58:06;8.98;;;2.38;;
43998;SDS011;51319;52.162;5.302;2022-10-16T12:00:52;16.17;;;2.60;;
43998;SDS011;51319;52.162;5.302;2022-10-16T12:03:27;6.45;;;2.10;;
43998;SDS011;51319;52.162;5.302;2022-10-16T12:06:10;6.15;;;1.98;;
43998;SDS011;51319;52.162;5.302;2022-10-16T12:08:58;10.52;;;1.98;;
43998;SDS011;51319;52.162;5.302;2022-10-16T12:13:52;8.02;;;2.10;;
43998;SDS011;51319;52.162;5.302;2022-10-16T12:19:24;5.25;;;1.70;;
43998;SDS011;51319;52.162;5.302;2022-10-16T12:21:54;10.73;;;1.83;;
43998;SDS011;51319;52.162;5.302;2022-10-16T12:26:57;8.70;;;2.17;;
43998;SDS011;51319;52.162;5.302;2022-10-16T12:29:41;8.50;;;2.03;;
43998;SDS011;51319;52.162;5.302;2022-10-16T12:35:19;9.20;;;2.15;;
43998;SDS011;51319;52.162;5.302;2022-10-16T12:37:48;13.65;;;2.17;;
43998;SDS011;51319;52.162;5.302;2022-10-16T12:40:29;8.20;;;1.90;;
43998;SDS011;51319;52.162;5.302;2022-10-16T12:42:59;10.10;;;2.05;;
43998;SDS011;51319;52.162;5.302;2022-10-16T12:45:38;8.40;;;1.98;;
43998;SDS011;51319;52.162;5.302;2022-10-16T12:48:18;10.27;;;2.17;;
43998;SDS011;51319;52.162;5.302;2022-10-16T13:01:32;9.43;;;1.80;;
43998;SDS011;51319;52.162;5.302;2022-10-16T13:05:03;8.10;;;2.17;;
43998;SDS011;51319;52.162;5.302;2022-10-16T13:26:49;10.13;;;1.95;;
43998;SDS011;51319;52.162;5.302;2022-10-16T13:29:22;8.98;;;2.10;;
43998;SDS011;51319;52.162;5.302;2022-10-16T13:31:48;11.48;;;2.22;;
43998;SDS011;51319;52.162;5.302;2022-10-16T13:34:15;9.80;;;2.17;;
43998;SDS011;51319;52.162;5.302;2022-10-16T13:36:46;14.27;;;3.80;;
43998;SDS011;51319;52.162;5.302;2022-10-16T13:42:03;9.52;;;2.40;;
43998;SDS011;51319;52.162;5.302;2022-10-16T13:44:53;18.20;;;3.20;;
43998;SDS011;51319;52.162;5.302;2022-10-16T13:47:22;10.40;;;2.55;;
43998;SDS011;51319;52.162;5.302;2022-10-16T13:50:04;13.50;;;4.97;;
43998;SDS011;51319;52.162;5.302;2022-10-16T13:52:32;12.98;;;3.45;;
43998;SDS011;51319;52.162;5.302;2022-10-16T13:54:58;12.75;;;2.40;;
43998;SDS011;51319;52.162;5.302;2022-10-16T13:57:27;23.48;;;8.93;;
43998;SDS011;51319;52.162;5.302;2022-10-16T13:59:54;13.82;;;3.58;;
43998;SDS011;51319;52.162;5.302;2022-10-16T14:02:22;11.98;;;3.30;;
43998;SDS011;51319;52.162;5.302;2022-10-16T14:04:55;16.42;;;5.18;;
43998;SDS011;51319;52.162;5.302;2022-10-16T14:07:24;15.98;;;3.47;;
43998;SDS011;51319;52.162;5.302;2022-10-16T14:09:52;6.20;;;2.03;;
43998;SDS011;51319;52.162;5.302;2022-10-16T14:12:19;14.52;;;3.83;;
43998;SDS011;51319;52.162;5.302;2022-10-16T14:14:52;11.77;;;2.28;;
43998;SDS011;51319;52.162;5.302;2022-10-16T14:17:28;14.20;;;2.67;;
43998;SDS011;51319;52.162;5.302;2022-10-16T14:19:57;10.57;;;1.92;;
43998;SDS011;51319;52.162;5.302;2022-10-16T14:25:01;8.07;;;2.05;;
43998;SDS011;51319;52.162;5.302;2022-10-16T14:27:30;14.27;;;2.33;;
43998;SDS011;51319;52.162;5.302;2022-10-16T14:32:42;10.55;;;2.13;;
43998;SDS011;51319;52.162;5.302;2022-10-16T14:37:57;8.20;;;2.03;;
43998;SDS011;51319;52.162;5.302;2022-10-16T14:40:26;10.13;;;2.00;;
43998;SDS011;51319;52.162;5.302;2022-10-16T14:43:02;9.48;;;2.88;;
43998;SDS011;51319;52.162;5.302;2022-10-16T14:45:31;11.38;;;2.67;;
43998;SDS011;51319;52.162;5.302;2022-10-16T14:48:03;17.38;;;2.80;;
43998;SDS011;51319;52.162;5.302;2022-10-16T14:50:45;11.45;;;2.10;;
43998;SDS011;51319;52.162;5.302;2022-10-16T14:53:11;8.52;;;1.85;;
43998;SDS011;51319;52.162;5.302;2022-10-16T14:55:41;10.70;;;2.47;;
43998;SDS011;51319;52.162;5.302;2022-10-16T14:58:19;8.80;;;2.45;;
43998;SDS011;51319;52.162;5.302;2022-10-16T15:00:47;11.60;;;2.10;;
43998;SDS011;51319;52.162;5.302;2022-10-16T15:03:13;10.63;;;2.20;;
43998;SDS011;51319;52.162;5.302;2022-10-16T15:05:40;12.25;;;2.70;;
43998;SDS011;51319;52.162;5.302;2022-10-16T15:08:06;11.10;;;2.05;;
43998;SDS011;51319;52.162;5.302;2022-10-16T15:10:42;14.45;;;3.95;;
43998;SDS011;51319;52.162;5.302;2022-10-16T15:13:11;14.13;;;2.75;;
43998;SDS011;51319;52.162;5.302;2022-10-16T15:15:40;15.95;;;3.13;;
43998;SDS011;51319;52.162;5.302;2022-10-16T15:18:11;10.57;;;3.00;;
43998;SDS011;51319;52.162;5.302;2022-10-16T15:20:40;10.80;;;2.50;;
43998;SDS011;51319;52.162;5.302;2022-10-16T15:23:11;11.18;;;2.90;;
43998;SDS011;51319;52.162;5.302;2022-10-16T15:25:51;12.23;;;2.60;;
43998;SDS011;51319;52.162;5.302;2022-10-16T15:28:19;14.60;;;2.78;;
43998;SDS011;51319;52.162;5.302;2022-10-16T15:30:46;11.32;;;3.25;;
43998;SDS011;51319;52.162;5.302;2022-10-16T15:33:16;14.75;;;3.47;;
43998;SDS011;51319;52.162;5.302;2022-10-16T15:35:47;16.48;;;3.80;;
43998;SDS011;51319;52.162;5.302;2022-10-16T15:38:15;8.73;;;4.23;;
43998;SDS011;51319;52.162;5.302;2022-10-16T15:40:42;16.77;;;5.60;;
43998;SDS011;51319;52.162;5.302;2022-10-16T15:43:09;14.27;;;5.68;;
43998;SDS011;51319;52.162;5.302;2022-10-16T15:45:37;24.48;;;5.72;;
43998;SDS011;51319;52.162;5.302;2022-10-16T15:48:03;17.17;;;6.43;;
43998;SDS011;51319;52.162;5.302;2022-10-16T15:50:30;23.83;;;7.35;;
43998;SDS011;51319;52.162;5.302;2022-10-16T15:52:57;17.60;;;5.75;;
43998;SDS011;51319;52.162;5.302;2022-10-16T15:55:23;16.65;;;5.32;;
43998;SDS011;51319;52.162;5.302;2022-10-16T15:57:50;16.25;;;5.18;;
43998;SDS011;51319;52.162;5.302;2022-10-16T16:00:18;26.50;;;5.82;;
43998;SDS011;51319;52.162;5.302;2022-10-16T16:02:52;23.48;;;7.93;;
43998;SDS011;51319;52.162;5.302;2022-10-16T16:05:20;18.05;;;6.68;;
43998;SDS011;51319;52.162;5.302;2022-10-16T16:07:47;17.95;;;5.38;;
43998;SDS011;51319;52.162;5.302;2022-10-16T16:10:14;22.48;;;6.75;;
43998;SDS011;51319;52.162;5.302;2022-10-16T16:12:40;23.52;;;7.75;;
43998;SDS011;51319;52.162;5.302;2022-10-16T16:15:08;20.85;;;7.03;;
43998;SDS011;51319;52.162;5.302;2022-10-16T16:17:36;23.92;;;8.18;;
43998;SDS011;51319;52.162;5.302;2022-10-16T16:20:03;20.88;;;8.30;;
43998;SDS011;51319;52.162;5.302;2022-10-16T16:22:30;31.52;;;12.02;;
43998;SDS011;51319;52.162;5.302;2022-10-16T16:24:57;38.75;;;15.00;;
43998;SDS011;51319;52.162;5.302;2022-10-16T16:27:23;41.72;;;17.27;;
43998;SDS011;51319;52.162;5.302;2022-10-16T16:29:55;144.63;;;90.00;;
43998;SDS011;51319;52.162;5.302;2022-10-16T16:32:21;129.70;;;74.80;;
43998;SDS011;51319;52.162;5.302;2022-10-16T16:34:48;112.55;;;71.53;;
43998;SDS011;51319;52.162;5.302;2022-10-16T16:37:14;111.07;;;73.40;;
43998;SDS011;51319;52.162;5.302;2022-10-16T16:39:40;76.55;;;42.05;;
43998;SDS011;51319;52.162;5.302;2022-10-16T16:42:06;48.35;;;24.92;;
43998;SDS011;51319;52.162;5.302;2022-10-16T16:44:33;39.95;;;20.30;;
43998;SDS011;51319;52.162;5.302;2022-10-16T16:47:02;39.53;;;17.77;;
43998;SDS011;51319;52.162;5.302;2022-10-16T16:49:29;52.25;;;18.38;;
43998;SDS011;51319;52.162;5.302;2022-10-16T16:51:55;48.40;;;17.30;;
43998;SDS011;51319;52.162;5.302;2022-10-16T16:54:21;33.40;;;13.38;;
43998;SDS011;51319;52.162;5.302;2022-10-16T16:56:47;37.60;;;10.65;;
43998;SDS011;51319;52.162;5.302;2022-10-16T16:59:14;20.38;;;7.07;;
43998;SDS011;51319;52.162;5.302;2022-10-16T17:01:45;32.00;;;7.57;;
43998;SDS011;51319;52.162;5.302;2022-10-16T17:04:12;20.42;;;6.68;;
43998;SDS011;51319;52.162;5.302;2022-10-16T17:06:40;26.20;;;10.40;;
43998;SDS011;51319;52.162;5.302;2022-10-16T17:09:07;25.70;;;9.95;;
43998;SDS011;51319;52.162;5.302;2022-10-16T17:11:35;29.88;;;12.57;;
43998;SDS011;51319;52.162;5.302;2022-10-16T17:14:02;68.97;;;28.98;;
43998;SDS011;51319;52.162;5.302;2022-10-16T17:16:32;96.18;;;41.95;;